createdAt,value
2022-10-24T00:02:09.870Z,84.70
2022-10-24T00:04:39.272Z,84.80
2022-10-24T00:07:08.508Z,84.90
2022-10-24T00:09:37.006Z,85.10
2022-10-24T00:12:08.090Z,85.00
2022-10-24T00:14:37.099Z,85.00
2022-10-24T00:17:10.134Z,85.20
2022-10-24T00:19:38.169Z,85.30
2022-10-24T00:22:08.783Z,85.20
2022-10-24T00:24:37.105Z,85.30
2022-10-24T00:27:04.853Z,85.20
2022-10-24T00:29:32.683Z,85.30
2022-10-24T00:32:00.196Z,85.40
2022-10-24T00:34:27.412Z,85.40
2022-10-24T00:36:54.909Z,85.20
2022-10-24T00:39:22.209Z,85.30
2022-10-24T00:41:50.305Z,85.30
2022-10-24T00:44:20.438Z,85.20
2022-10-24T00:47:11.332Z,85.10
2022-10-24T00:49:47.776Z,85.10
2022-10-24T00:52:22.431Z,85.00
2022-10-24T00:54:51.520Z,85.00
2022-10-24T00:57:25.729Z,85.00
2022-10-24T00:59:59.567Z,84.90
2022-10-24T01:02:28.205Z,85.10
2022-10-24T01:04:55.744Z,85.00
2022-10-24T01:07:54.131Z,85.10
2022-10-24T01:10:37.060Z,85.10
2022-10-24T01:13:19.260Z,85.20
2022-10-24T01:16:13.228Z,85.20
2022-10-24T01:18:55.102Z,85.30
2022-10-24T01:21:39.138Z,85.30
2022-10-24T01:24:48.188Z,85.30
2022-10-24T01:27:29.724Z,85.30
2022-10-24T01:30:09.109Z,85.20
2022-10-24T01:32:45.248Z,85.30
2022-10-24T01:35:37.235Z,85.40
2022-10-24T01:38:16.226Z,85.40
2022-10-24T01:41:17.476Z,85.50
2022-10-24T01:44:05.312Z,85.50
2022-10-24T01:46:43.061Z,85.40
2022-10-24T01:49:26.941Z,85.50
2022-10-24T01:52:04.378Z,85.50
2022-10-24T01:54:33.076Z,85.50
2022-10-24T01:57:00.822Z,85.60
2022-10-24T01:59:30.930Z,85.60
2022-10-24T02:02:03.637Z,85.60
2022-10-24T02:04:36.057Z,85.50
2022-10-24T02:07:07.789Z,85.50
2022-10-24T02:09:38.408Z,85.40
2022-10-24T02:12:12.300Z,85.40
2022-10-24T02:15:06.870Z,85.30
2022-10-24T02:17:34.650Z,85.30
2022-10-24T02:20:02.768Z,85.50
2022-10-24T02:22:51.010Z,85.50
2022-10-24T02:25:32.300Z,85.60
2022-10-24T02:28:09.361Z,85.70
2022-10-24T02:30:44.802Z,85.70
2022-10-24T02:33:16.719Z,85.80
2022-10-24T02:35:47.617Z,85.70
2022-10-24T02:38:24.435Z,85.70
2022-10-24T02:40:54.069Z,85.70
2022-10-24T02:43:23.440Z,85.70
2022-10-24T02:45:56.433Z,85.70
2022-10-24T02:48:30.253Z,85.70
2022-10-24T02:50:58.560Z,85.60
2022-10-24T02:53:27.073Z,85.60
2022-10-24T02:55:57.316Z,85.70
2022-10-24T02:58:27.225Z,85.70
2022-10-24T03:00:54.541Z,85.60
2022-10-24T03:03:24.784Z,85.60
2022-10-24T03:05:54.879Z,85.70
2022-10-24T03:08:25.160Z,85.70
2022-10-24T03:10:55.299Z,85.60
2022-10-24T03:13:22.549Z,85.60
2022-10-24T03:15:52.685Z,85.60
2022-10-24T03:18:20.041Z,85.60
2022-10-24T03:20:47.757Z,85.60
2022-10-24T03:23:16.874Z,85.60
2022-10-24T03:25:45.634Z,85.60
2022-10-24T03:28:12.834Z,85.50
2022-10-24T03:30:40.822Z,85.60
2022-10-24T03:33:08.972Z,85.70
2022-10-24T03:35:37.610Z,85.80
2022-10-24T03:38:05.431Z,85.70
2022-10-24T03:40:32.939Z,85.70
2022-10-24T03:43:03.463Z,85.80
2022-10-24T03:45:31.381Z,85.80
2022-10-24T03:47:58.529Z,85.80
2022-10-24T03:50:26.350Z,85.80
2022-10-24T03:53:05.923Z,85.90
2022-10-24T03:55:39.437Z,85.90
2022-10-24T03:58:07.187Z,86.00
2022-10-24T04:00:43.457Z,85.90
2022-10-24T04:03:11.337Z,86.00
2022-10-24T04:05:44.014Z,86.20
2022-10-24T04:08:12.286Z,86.20
2022-10-24T04:10:40.339Z,86.30
2022-10-24T04:13:10.498Z,86.30
2022-10-24T04:15:38.212Z,86.30
2022-10-24T04:18:08.489Z,86.30
2022-10-24T04:20:36.923Z,86.30
2022-10-24T04:23:14.439Z,86.30
2022-10-24T04:25:45.603Z,86.30
2022-10-24T04:28:15.922Z,86.30
2022-10-24T04:30:55.439Z,86.40
2022-10-24T04:33:25.049Z,86.40
2022-10-24T04:35:56.243Z,86.50
2022-10-24T04:38:23.942Z,86.50
2022-10-24T04:40:55.043Z,86.70
2022-10-24T04:43:23.425Z,86.70
2022-10-24T04:45:51.030Z,87.00
2022-10-24T04:48:21.437Z,87.00
2022-10-24T04:50:51.568Z,87.10
2022-10-24T04:53:22.105Z,87.20
2022-10-24T04:56:05.240Z,87.10
2022-10-24T04:58:38.862Z,87.20
2022-10-24T05:01:06.813Z,87.30
2022-10-24T05:03:46.754Z,87.30
2022-10-24T05:06:14.454Z,87.50
2022-10-24T05:09:13.264Z,87.50
2022-10-24T05:11:35.954Z,87.50
2022-10-24T05:14:10.341Z,87.50
2022-10-24T05:16:37.765Z,87.50
2022-10-24T05:19:08.952Z,87.40
2022-10-24T05:21:36.442Z,87.40
2022-10-24T05:24:06.737Z,87.40
2022-10-24T05:26:35.491Z,87.30
2022-10-24T05:29:03.347Z,87.40
2022-10-24T05:31:34.395Z,87.40
2022-10-24T05:34:07.633Z,87.60
2022-10-24T05:39:33.585Z,87.30
2022-10-24T05:42:16.387Z,87.10
2022-10-24T05:44:51.962Z,87.00
2022-10-24T05:47:26.935Z,87.10
2022-10-24T05:49:59.171Z,87.00
2022-10-24T05:52:36.711Z,87.00
2022-10-24T05:55:16.977Z,87.00
2022-10-24T05:58:03.466Z,86.80
2022-10-24T06:00:38.737Z,87.00
2022-10-24T06:03:14.921Z,87.00
2022-10-24T06:05:49.633Z,86.70
2022-10-24T06:08:47.816Z,86.50
2022-10-24T06:11:47.228Z,86.50
2022-10-24T06:14:14.876Z,86.00
2022-10-24T06:16:54.210Z,86.10
2022-10-24T06:19:27.815Z,85.60
2022-10-24T06:22:18.688Z,85.60
2022-10-24T06:25:20.229Z,85.60
2022-10-24T06:28:04.515Z,85.10
2022-10-24T06:33:50.888Z,84.50
2022-10-24T06:39:36.760Z,84.40
2022-10-24T06:42:14.719Z,84.30
2022-10-24T06:45:15.125Z,84.10
2022-10-24T06:47:54.775Z,84.00
2022-10-24T06:54:10.569Z,83.70
2022-10-24T06:57:24.164Z,83.50
2022-10-24T07:06:41.456Z,82.90
2022-10-24T07:09:40.496Z,82.60
2022-10-24T07:13:30.556Z,82.30
2022-10-24T07:16:31.319Z,81.50
2022-10-24T07:19:26.639Z,80.90
2022-10-24T07:25:39.717Z,79.50
2022-10-24T07:28:26.294Z,79.50
2022-10-24T07:31:19.121Z,78.60
2022-10-24T07:49:57.654Z,78.10
2022-10-24T07:56:10.039Z,76.80
2022-10-24T07:58:43.689Z,77.00
2022-10-24T08:05:44.012Z,76.50
2022-10-24T08:08:34.988Z,77.10
2022-10-24T08:11:57.588Z,77.30
2022-10-24T08:15:02.197Z,77.00
2022-10-24T08:24:22.770Z,77.10
2022-10-24T08:27:16.971Z,77.50
2022-10-24T08:30:03.272Z,75.90
2022-10-24T08:37:58.185Z,73.90
2022-10-24T08:47:04.427Z,70.00
2022-10-24T08:57:43.718Z,72.10
2022-10-24T09:04:56.831Z,73.60
2022-10-24T09:11:18.003Z,72.50
2022-10-24T09:15:14.631Z,71.90
2022-10-24T09:17:57.479Z,71.50
2022-10-24T09:20:54.916Z,70.90
2022-10-24T09:24:48.631Z,70.70
2022-10-24T09:30:19.309Z,70.90
2022-10-24T09:33:08.036Z,70.50
2022-10-24T09:36:07.666Z,70.60
2022-10-24T09:52:35.219Z,72.40
2022-10-24T09:56:06.316Z,72.60
2022-10-24T09:59:24.944Z,73.00
2022-10-24T10:03:02.165Z,72.70
2022-10-24T10:17:44.699Z,73.40
2022-10-24T10:21:03.047Z,73.90
2022-10-24T10:23:53.099Z,74.10
2022-10-24T10:27:18.082Z,74.60
2022-10-24T10:30:14.762Z,74.60
2022-10-24T10:33:57.818Z,74.80
2022-10-24T10:41:05.298Z,75.40
2022-10-24T10:44:05.745Z,76.40
2022-10-24T10:47:08.786Z,76.90
2022-10-24T10:49:53.695Z,77.10
2022-10-24T10:53:17.411Z,77.40
2022-10-24T10:56:34.768Z,77.50
2022-10-24T10:59:53.979Z,77.70
2022-10-24T11:03:01.406Z,78.10
2022-10-24T11:06:54.398Z,78.20
2022-10-24T11:08:48.305Z,78.70
2022-10-24T11:11:54.468Z,78.70
2022-10-24T11:15:31.056Z,78.90
2022-10-24T11:18:54.735Z,78.80
2022-10-24T11:21:34.524Z,78.90
2022-10-24T11:24:13.469Z,78.90
2022-10-24T11:27:18.851Z,79.20
2022-10-24T11:30:39.093Z,79.30
2022-10-24T11:33:37.456Z,79.90
2022-10-24T11:39:24.773Z,80.00
2022-10-24T11:42:26.051Z,79.70
2022-10-24T11:45:58.059Z,79.80
2022-10-24T11:49:17.912Z,79.40
2022-10-24T11:52:22.225Z,79.40
2022-10-24T11:55:58.753Z,79.60
2022-10-24T11:58:33.945Z,80.00
2022-10-24T12:02:22.335Z,80.40
2022-10-24T12:05:18.040Z,80.40
2022-10-24T12:09:13.539Z,80.40
2022-10-24T12:12:24.557Z,80.50
2022-10-24T12:15:35.489Z,80.80
2022-10-24T12:19:29.712Z,80.90
2022-10-24T12:22:43.894Z,81.10
2022-10-24T12:25:59.257Z,81.00
2022-10-24T12:28:59.377Z,81.00
2022-10-24T12:32:18.549Z,81.10
2022-10-24T12:39:27.872Z,81.40
2022-10-24T12:42:07.738Z,81.60
2022-10-24T12:45:09.506Z,81.90
2022-10-24T12:48:19.327Z,82.20
2022-10-24T12:51:05.741Z,82.40
2022-10-24T12:54:02.320Z,82.70
2022-10-24T12:56:57.569Z,82.80
2022-10-24T13:00:28.984Z,82.80
2022-10-24T13:03:45.172Z,83.00
2022-10-24T13:06:46.225Z,82.90
2022-10-24T13:09:58.729Z,83.00
2022-10-24T13:13:21.385Z,83.00
2022-10-24T13:16:14.493Z,82.80
2022-10-24T13:19:18.635Z,82.80
2022-10-24T13:22:11.197Z,83.10
2022-10-24T13:31:36.915Z,83.50
2022-10-24T13:38:01.259Z,83.70
2022-10-24T13:40:58.445Z,83.80
2022-10-24T13:43:35.276Z,83.70
2022-10-24T13:46:25.153Z,83.70
2022-10-24T13:53:01.040Z,83.50
2022-10-24T13:56:12.015Z,83.50
2022-10-24T14:03:43.189Z,83.40
2022-10-24T14:17:34.512Z,83.10
2022-10-24T14:25:42.815Z,82.60
2022-10-24T14:28:28.246Z,82.60
2022-10-24T14:31:47.497Z,82.80
2022-10-24T14:35:04.931Z,82.90
2022-10-24T14:37:36.267Z,83.10
2022-10-24T14:40:26.202Z,83.10
2022-10-24T14:49:47.875Z,83.40
2022-10-24T14:53:02.702Z,83.50
2022-10-24T15:05:33.005Z,84.20
2022-10-24T15:10:20.051Z,84.50
2022-10-24T15:16:26.209Z,84.70
2022-10-24T15:27:16.455Z,84.90
2022-10-24T15:29:50.971Z,85.00
2022-10-24T15:32:40.700Z,85.10
2022-10-24T15:35:31.700Z,85.30
2022-10-24T15:38:27.432Z,85.30
2022-10-24T15:41:29.742Z,85.40
2022-10-24T15:44:26.751Z,85.40
2022-10-24T15:47:26.412Z,85.50
2022-10-24T15:53:05.987Z,85.60
2022-10-24T15:55:52.572Z,85.50
2022-10-24T15:58:34.399Z,85.50
2022-10-24T16:01:14.112Z,85.40
2022-10-24T16:04:09.223Z,85.30
2022-10-24T16:10:37.398Z,85.30
2022-10-24T16:13:38.538Z,85.40
2022-10-24T16:16:39.769Z,85.30
2022-10-24T16:19:41.316Z,85.40
2022-10-24T16:26:38.519Z,85.30
2022-10-24T16:30:23.967Z,85.10
2022-10-24T16:32:47.944Z,85.20
2022-10-24T16:39:52.031Z,85.20
2022-10-24T16:52:56.321Z,84.90
2022-10-24T16:56:30.632Z,85.00
2022-10-24T17:03:02.359Z,85.20
2022-10-24T17:05:38.563Z,85.20
2022-10-24T17:14:51.881Z,85.20
2022-10-24T17:20:13.137Z,85.20
2022-10-24T17:22:46.744Z,85.20
2022-10-24T17:25:58.133Z,85.30
2022-10-24T17:28:46.768Z,85.30
2022-10-24T17:35:05.302Z,85.10
2022-10-24T17:38:12.120Z,85.00
2022-10-24T17:41:42.626Z,85.20
2022-10-24T17:44:25.250Z,85.30
2022-10-24T17:47:05.179Z,85.30
2022-10-24T17:49:32.945Z,85.30
2022-10-24T17:52:01.019Z,85.40
2022-10-24T17:54:31.755Z,85.30
2022-10-24T17:57:09.037Z,85.40
2022-10-24T17:59:42.500Z,85.30
2022-10-24T18:02:14.076Z,85.50
2022-10-24T18:04:48.728Z,85.50
2022-10-24T18:07:18.881Z,85.50
2022-10-24T18:09:51.806Z,85.50
2022-10-24T18:12:20.103Z,85.50
2022-10-24T18:15:00.970Z,85.60
2022-10-24T18:17:33.083Z,85.70
2022-10-24T18:20:06.536Z,85.70
2022-10-24T18:22:42.828Z,85.70
2022-10-24T18:25:20.260Z,85.70
2022-10-24T18:27:59.200Z,85.80
2022-10-24T18:30:27.503Z,85.80
2022-10-24T18:32:56.823Z,85.90
2022-10-24T18:35:31.286Z,85.70
2022-10-24T18:38:01.823Z,85.80
2022-10-24T18:40:39.890Z,85.70
2022-10-24T18:43:12.292Z,85.80
2022-10-24T18:45:45.984Z,86.00
2022-10-24T18:48:19.881Z,86.20
2022-10-24T18:50:52.628Z,86.20
2022-10-24T18:53:41.752Z,86.20
2022-10-24T18:56:26.292Z,86.30
2022-10-24T18:58:59.818Z,86.30
2022-10-24T19:01:58.189Z,86.30
2022-10-24T19:04:31.091Z,86.30
2022-10-24T19:07:07.079Z,86.40
2022-10-24T19:09:37.155Z,86.50
2022-10-24T19:12:16.769Z,86.60
2022-10-24T19:14:53.334Z,86.90
2022-10-24T19:17:31.834Z,87.00
2022-10-24T19:20:14.260Z,87.20
2022-10-24T19:22:44.988Z,87.50
2022-10-24T19:25:21.858Z,87.60
2022-10-24T19:28:01.743Z,87.70
2022-10-24T19:30:40.885Z,87.80
2022-10-24T19:33:08.810Z,88.00
2022-10-24T19:35:49.964Z,88.10
2022-10-24T19:38:50.528Z,88.10
2022-10-24T19:41:17.827Z,88.10
2022-10-24T19:43:51.057Z,88.30
2022-10-24T19:46:21.097Z,88.20
2022-10-24T19:48:54.125Z,88.20
2022-10-24T19:51:30.769Z,88.20
2022-10-24T19:54:01.753Z,88.10
2022-10-24T19:56:31.538Z,88.10
2022-10-24T19:59:05.843Z,88.10
2022-10-24T20:01:39.581Z,88.20
2022-10-24T20:04:10.351Z,88.40
2022-10-24T20:07:05.447Z,88.30
2022-10-24T20:09:35.606Z,88.30
2022-10-24T20:12:12.521Z,88.20
2022-10-24T20:14:45.183Z,88.30
2022-10-24T20:17:18.528Z,88.30
2022-10-24T20:19:46.220Z,88.50
2022-10-24T20:22:13.376Z,88.50
2022-10-24T20:24:50.390Z,88.60
2022-10-24T20:27:24.473Z,88.70
2022-10-24T20:29:55.596Z,88.70
2022-10-24T20:32:23.269Z,88.60
2022-10-24T20:34:53.522Z,88.60
2022-10-24T20:37:21.170Z,88.70
2022-10-24T20:39:51.931Z,88.60
2022-10-24T20:42:23.659Z,88.60
2022-10-24T20:44:51.349Z,88.60
2022-10-24T20:47:24.040Z,88.60
2022-10-24T20:49:51.492Z,88.70
2022-10-24T20:52:19.728Z,88.70
2022-10-24T20:54:50.157Z,88.60
2022-10-24T20:57:41.709Z,88.60
2022-10-24T21:00:16.512Z,88.70
2022-10-24T21:02:47.391Z,88.40
2022-10-24T21:05:19.098Z,88.60
2022-10-24T21:07:54.762Z,88.90
2022-10-24T21:10:22.077Z,89.00
2022-10-24T21:13:02.445Z,89.00
2022-10-24T21:15:34.786Z,89.10
2022-10-24T21:18:11.734Z,89.20
2022-10-24T21:20:42.850Z,89.20
2022-10-24T21:23:13.579Z,89.10
2022-10-24T21:25:45.717Z,89.10
2022-10-24T21:28:21.920Z,89.10
2022-10-24T21:31:03.517Z,89.20
2022-10-24T21:33:39.091Z,89.10
2022-10-24T21:36:22.782Z,89.20
2022-10-24T21:39:07.437Z,89.30
2022-10-24T21:41:37.594Z,89.20
2022-10-24T21:44:08.157Z,89.30
2022-10-24T21:46:41.375Z,89.50
2022-10-24T21:49:24.013Z,89.60
2022-10-24T21:51:53.607Z,89.70
2022-10-24T21:54:23.127Z,89.70
2022-10-24T21:56:50.604Z,89.70
2022-10-24T21:59:20.199Z,89.80
2022-10-24T22:01:49.359Z,89.90
2022-10-24T22:04:28.974Z,89.90
2022-10-24T22:06:57.843Z,89.90
2022-10-24T22:09:30.899Z,89.90
2022-10-24T22:11:58.850Z,89.80
2022-10-24T22:14:30.100Z,89.60
2022-10-24T22:17:02.839Z,89.70
2022-10-24T22:19:32.700Z,89.80
2022-10-24T22:22:01.078Z,89.90
2022-10-24T22:24:31.029Z,89.90
2022-10-24T22:27:03.154Z,89.90
2022-10-24T22:29:38.699Z,89.90
2022-10-24T22:32:10.190Z,90.00
2022-10-24T22:34:37.900Z,90.00
2022-10-24T22:37:28.649Z,90.00
2022-10-24T22:39:56.667Z,90.10
2022-10-24T22:42:27.406Z,90.10
2022-10-24T22:45:00.584Z,90.10
2022-10-24T22:47:48.396Z,89.90
2022-10-24T22:50:28.027Z,89.60
2022-10-24T22:53:02.500Z,89.70
2022-10-24T22:55:52.938Z,89.70
2022-10-24T22:58:21.483Z,89.90
2022-10-24T23:01:15.209Z,90.00
2022-10-24T23:04:01.295Z,90.10
2022-10-24T23:06:53.607Z,90.10
2022-10-24T23:09:23.031Z,90.20
2022-10-24T23:11:53.478Z,90.10
2022-10-24T23:14:31.480Z,90.10
2022-10-24T23:17:03.624Z,90.10
2022-10-24T23:19:44.530Z,90.10
2022-10-24T23:25:10.302Z,90.10
2022-10-24T23:27:42.194Z,90.20
2022-10-24T23:30:20.009Z,90.30
2022-10-24T23:32:53.211Z,90.40
2022-10-24T23:36:14.576Z,90.60
2022-10-24T23:38:42.337Z,90.50
2022-10-24T23:41:19.289Z,90.70
2022-10-24T23:43:56.351Z,90.60
2022-10-24T23:46:40.768Z,90.60
2022-10-24T23:49:39.262Z,90.50
2022-10-24T23:52:18.573Z,90.40
2022-10-24T23:54:55.347Z,90.40
2022-10-24T23:57:23.126Z,90.30
2022-10-24T23:59:53.825Z,90.30
